createdAt,value
2022-10-31T00:00:49.627Z,13.07
2022-10-31T00:03:17.399Z,17.07
2022-10-31T00:05:46.619Z,18.37
2022-10-31T00:08:13.855Z,20.20
2022-10-31T00:10:42.624Z,18.20
2022-10-31T00:13:10.381Z,13.07
2022-10-31T00:15:37.963Z,26.87
2022-10-31T00:18:05.452Z,19.63
2022-10-31T00:20:32.557Z,15.93
2022-10-31T00:22:59.971Z,17.80
2022-10-31T00:25:27.400Z,18.23
2022-10-31T00:27:56.087Z,16.00
2022-10-31T00:30:23.586Z,19.30
2022-10-31T00:32:50.696Z,23.33
2022-10-31T00:35:18.467Z,17.83
2022-10-31T00:37:45.888Z,17.50
2022-10-31T00:40:13.240Z,16.33
2022-10-31T00:42:40.553Z,20.57
2022-10-31T00:45:09.473Z,19.20
2022-10-31T00:47:36.582Z,20.13
2022-10-31T00:50:03.816Z,19.10
2022-10-31T00:52:31.115Z,19.63
2022-10-31T00:54:58.332Z,15.13
2022-10-31T00:57:25.482Z,21.60
2022-10-31T00:59:52.631Z,15.77
2022-10-31T01:02:21.630Z,20.43
2022-10-31T01:04:49.875Z,17.00
2022-10-31T01:07:16.972Z,14.13
2022-10-31T01:09:45.487Z,17.17
2022-10-31T01:12:12.605Z,17.07
2022-10-31T01:14:44.136Z,13.40
2022-10-31T01:17:11.240Z,15.93
2022-10-31T01:19:39.993Z,20.00
2022-10-31T01:22:07.142Z,21.37
2022-10-31T01:24:34.299Z,15.47
2022-10-31T01:27:02.996Z,15.60
2022-10-31T01:29:33.859Z,14.00
2022-10-31T01:32:00.989Z,18.23
2022-10-31T01:34:29.408Z,15.70
2022-10-31T01:36:57.925Z,16.43
2022-10-31T01:39:25.132Z,15.87
2022-10-31T01:41:53.749Z,23.20
2022-10-31T01:44:39.691Z,18.87
2022-10-31T01:47:09.319Z,18.97
2022-10-31T01:49:38.039Z,15.10
2022-10-31T01:52:07.920Z,14.33
2022-10-31T01:54:36.440Z,21.47
2022-10-31T01:57:04.816Z,15.47
2022-10-31T01:59:33.753Z,17.93
2022-10-31T02:02:01.888Z,17.83
2022-10-31T02:04:29.369Z,15.40
2022-10-31T02:06:57.980Z,16.40
2022-10-31T02:09:26.705Z,16.43
2022-10-31T02:11:54.308Z,21.93
2022-10-31T02:14:22.722Z,11.63
2022-10-31T02:16:52.204Z,19.20
2022-10-31T02:19:21.470Z,16.33
2022-10-31T02:21:52.343Z,17.80
2022-10-31T02:24:43.037Z,23.03
2022-10-31T02:27:17.901Z,15.53
2022-10-31T02:29:57.045Z,13.67
2022-10-31T02:32:29.234Z,16.57
2022-10-31T02:34:59.795Z,16.73
2022-10-31T02:37:31.090Z,17.60
2022-10-31T02:40:00.820Z,14.50
2022-10-31T02:42:49.034Z,19.50
2022-10-31T02:45:23.010Z,19.50
2022-10-31T02:47:52.210Z,16.30
2022-10-31T02:50:21.577Z,15.03
2022-10-31T02:52:51.624Z,16.13
2022-10-31T02:55:33.610Z,19.77
2022-10-31T02:58:04.323Z,13.27
2022-10-31T03:00:33.661Z,18.67
2022-10-31T03:03:04.744Z,16.10
2022-10-31T03:05:40.561Z,15.53
2022-10-31T03:08:09.954Z,17.00
2022-10-31T03:10:40.740Z,16.10
2022-10-31T03:13:10.656Z,15.20
2022-10-31T03:15:39.616Z,14.20
2022-10-31T03:18:09.744Z,21.03
2022-10-31T03:20:40.014Z,16.83
2022-10-31T03:23:09.718Z,19.13
2022-10-31T03:25:38.106Z,14.67
2022-10-31T03:28:06.181Z,16.33
2022-10-31T03:30:34.991Z,18.10
2022-10-31T03:33:04.009Z,15.23
2022-10-31T03:35:34.510Z,15.70
2022-10-31T03:38:05.507Z,19.60
2022-10-31T03:40:36.697Z,18.13
2022-10-31T03:43:06.478Z,18.47
2022-10-31T03:45:33.953Z,20.00
2022-10-31T03:48:01.699Z,17.70
2022-10-31T03:50:31.119Z,18.73
2022-10-31T03:53:05.812Z,31.67
2022-10-31T03:55:34.298Z,27.20
2022-10-31T03:58:04.430Z,15.27
2022-10-31T04:00:33.019Z,15.70
2022-10-31T04:03:02.164Z,19.93
2022-10-31T04:05:32.354Z,19.33
2022-10-31T04:08:04.151Z,14.80
2022-10-31T04:10:33.419Z,18.60
2022-10-31T04:13:04.219Z,15.93
2022-10-31T04:15:39.396Z,15.93
2022-10-31T04:18:07.495Z,18.63
2022-10-31T04:20:35.342Z,16.53
2022-10-31T04:23:04.641Z,22.23
2022-10-31T04:25:32.303Z,16.07
2022-10-31T04:28:00.702Z,18.53
2022-10-31T04:30:28.103Z,25.97
2022-10-31T04:32:55.535Z,17.03
2022-10-31T04:35:22.729Z,18.00
2022-10-31T04:37:49.940Z,20.10
2022-10-31T04:40:18.490Z,18.43
2022-10-31T04:43:08.615Z,20.67
2022-10-31T04:45:35.809Z,18.93
2022-10-31T04:48:03.253Z,17.57
2022-10-31T04:50:34.133Z,22.13
2022-10-31T04:53:01.221Z,18.77
2022-10-31T04:55:33.506Z,15.90
2022-10-31T05:00:45.099Z,15.20
2022-10-31T05:03:13.176Z,20.50
2022-10-31T05:05:40.310Z,15.47
2022-10-31T05:08:07.668Z,19.33
2022-10-31T05:10:36.124Z,20.20
2022-10-31T05:13:05.736Z,19.73
2022-10-31T05:15:52.178Z,16.87
2022-10-31T05:18:19.254Z,22.70
2022-10-31T05:21:04.957Z,17.73
2022-10-31T05:23:35.734Z,22.07
2022-10-31T05:26:04.734Z,20.00
2022-10-31T05:28:31.877Z,15.60
2022-10-31T05:31:00.284Z,13.13
2022-10-31T05:33:27.371Z,16.87
2022-10-31T05:36:12.980Z,16.50
2022-10-31T05:38:52.806Z,17.97
2022-10-31T05:41:27.237Z,14.73
2022-10-31T05:44:03.105Z,16.70
2022-10-31T05:49:23.632Z,16.50
2022-10-31T05:51:59.420Z,17.07
2022-10-31T05:54:35.485Z,19.30
2022-10-31T05:57:03.990Z,22.17
2022-10-31T05:59:31.402Z,16.70
2022-10-31T06:01:59.227Z,19.00
2022-10-31T06:04:49.409Z,23.00
2022-10-31T06:07:16.586Z,19.37
2022-10-31T06:09:44.120Z,22.20
2022-10-31T06:12:13.107Z,19.87
2022-10-31T06:15:00.194Z,22.77
2022-10-31T06:17:27.339Z,22.30
2022-10-31T06:20:17.129Z,23.93
2022-10-31T06:22:55.081Z,23.40
2022-10-31T06:25:22.248Z,18.80
2022-10-31T06:27:51.806Z,19.80
2022-10-31T06:30:21.211Z,20.80
2022-10-31T06:32:48.313Z,20.40
2022-10-31T06:35:15.514Z,23.70
2022-10-31T06:37:45.510Z,17.47
2022-10-31T06:40:28.619Z,23.07
2022-10-31T06:43:19.987Z,31.10
2022-10-31T06:45:47.152Z,28.67
2022-10-31T06:48:18.287Z,28.90
2022-10-31T06:51:08.405Z,19.00
2022-10-31T06:53:35.560Z,20.17
2022-10-31T06:56:04.338Z,24.47
2022-10-31T06:58:37.623Z,25.10
2022-10-31T07:01:07.289Z,20.23
2022-10-31T07:03:34.544Z,19.03
2022-10-31T07:06:01.636Z,30.03
2022-10-31T07:08:28.929Z,19.73
2022-10-31T07:10:56.780Z,31.63
2022-10-31T07:13:25.594Z,19.13
2022-10-31T07:16:02.695Z,25.13
2022-10-31T07:18:30.984Z,21.13
2022-10-31T07:20:58.092Z,22.00
2022-10-31T07:23:25.246Z,21.87
2022-10-31T07:26:12.327Z,21.47
2022-10-31T07:28:44.543Z,20.40
2022-10-31T07:31:15.028Z,26.23
2022-10-31T07:33:42.388Z,19.77
2022-10-31T07:36:27.461Z,19.50
2022-10-31T07:38:58.253Z,20.80
2022-10-31T07:41:25.569Z,21.57
2022-10-31T07:46:57.588Z,20.27
2022-10-31T07:49:24.641Z,23.30
2022-10-31T07:52:10.245Z,28.10
2022-10-31T07:54:55.732Z,25.37
2022-10-31T07:57:25.346Z,17.93
2022-10-31T07:59:53.015Z,21.43
2022-10-31T08:02:21.705Z,23.43
2022-10-31T08:04:48.898Z,18.80
2022-10-31T08:07:31.048Z,18.20
2022-10-31T08:10:04.812Z,23.53
2022-10-31T08:12:32.505Z,24.63
2022-10-31T08:14:59.607Z,27.80
2022-10-31T08:17:28.051Z,21.70
2022-10-31T08:19:56.831Z,21.20
2022-10-31T08:22:29.891Z,16.83
2022-10-31T08:24:56.979Z,15.43
2022-10-31T08:27:24.090Z,20.10
2022-10-31T08:29:51.204Z,19.73
2022-10-31T08:32:19.114Z,14.43
2022-10-31T08:34:59.502Z,15.37
2022-10-31T08:38:01.968Z,17.97
2022-10-31T08:40:30.367Z,22.47
2022-10-31T08:42:58.283Z,23.23
2022-10-31T08:45:25.428Z,18.17
2022-10-31T08:47:52.694Z,17.83
2022-10-31T08:50:21.190Z,16.37
2022-10-31T08:53:04.206Z,17.03
2022-10-31T08:55:34.553Z,22.27
2022-10-31T08:58:08.734Z,22.07
2022-10-31T09:00:42.012Z,18.50
2022-10-31T09:03:18.643Z,17.93
2022-10-31T09:05:47.155Z,18.17
2022-10-31T09:08:16.729Z,23.33
2022-10-31T09:10:46.244Z,15.50
2022-10-31T09:13:16.484Z,19.37
2022-10-31T09:16:02.304Z,15.93
2022-10-31T09:18:31.087Z,15.70
2022-10-31T09:21:01.136Z,23.03
2022-10-31T09:23:30.929Z,20.73
2022-10-31T09:26:00.600Z,17.47
2022-10-31T09:28:47.452Z,15.57
2022-10-31T09:31:17.256Z,18.03
2022-10-31T09:33:51.071Z,20.93
2022-10-31T09:36:51.624Z,19.53
2022-10-31T09:39:20.672Z,20.27
2022-10-31T09:42:04.428Z,19.23
2022-10-31T09:44:36.306Z,24.73
2022-10-31T09:47:06.377Z,25.80
2022-10-31T09:49:42.787Z,18.53
2022-10-31T09:52:15.608Z,20.80
2022-10-31T09:54:44.942Z,14.50
2022-10-31T09:57:14.116Z,22.83
2022-10-31T09:59:43.434Z,22.37
2022-10-31T10:02:14.808Z,22.47
2022-10-31T10:04:45.765Z,17.33
2022-10-31T10:07:23.765Z,25.40
2022-10-31T10:10:14.657Z,16.33
2022-10-31T10:13:20.521Z,25.57
2022-10-31T10:15:53.944Z,22.10
2022-10-31T10:18:25.312Z,20.80
2022-10-31T10:20:58.657Z,18.50
2022-10-31T10:23:33.142Z,24.17
2022-10-31T10:26:06.140Z,17.87
2022-10-31T10:28:39.039Z,21.60
2022-10-31T10:31:08.247Z,11.57
2022-10-31T10:33:37.221Z,22.20
2022-10-31T10:36:05.837Z,20.80
2022-10-31T10:38:37.400Z,22.07
2022-10-31T10:41:11.434Z,22.60
2022-10-31T10:43:39.189Z,18.77
2022-10-31T10:46:14.465Z,18.23
2022-10-31T10:48:44.322Z,13.37
2022-10-31T10:51:38.561Z,17.43
2022-10-31T10:54:11.957Z,15.53
2022-10-31T10:56:42.103Z,14.37
2022-10-31T10:59:11.566Z,15.87
2022-10-31T11:01:39.579Z,16.20
2022-10-31T11:04:07.049Z,11.97
2022-10-31T11:06:34.152Z,17.33
2022-10-31T11:09:09.819Z,20.07
2022-10-31T11:11:40.181Z,12.70
2022-10-31T11:14:16.164Z,13.97
2022-10-31T11:16:44.134Z,19.90
2022-10-31T11:19:17.658Z,20.30
2022-10-31T11:21:48.467Z,16.77
2022-10-31T11:24:18.808Z,18.80
2022-10-31T11:26:48.118Z,20.87
2022-10-31T11:29:16.894Z,11.67
2022-10-31T11:31:44.807Z,18.63
2022-10-31T11:34:17.538Z,14.07
2022-10-31T11:36:45.602Z,15.63
2022-10-31T11:39:18.037Z,14.57
2022-10-31T11:41:45.396Z,17.70
2022-10-31T11:44:14.971Z,24.83
2022-10-31T11:46:43.062Z,22.03
2022-10-31T11:49:14.777Z,18.23
2022-10-31T11:51:41.922Z,16.70
2022-10-31T11:54:19.426Z,10.47
2022-10-31T11:56:46.535Z,12.33
2022-10-31T11:59:19.186Z,13.83
2022-10-31T12:01:49.065Z,11.10
2022-10-31T12:04:16.792Z,9.20
2022-10-31T12:06:45.023Z,11.23
2022-10-31T12:09:21.500Z,9.33
2022-10-31T12:11:55.862Z,11.30
2022-10-31T12:14:32.943Z,10.57
2022-10-31T12:17:04.217Z,9.57
2022-10-31T12:19:35.832Z,11.43
2022-10-31T12:22:17.815Z,10.73
2022-10-31T12:24:54.824Z,8.53
2022-10-31T12:27:29.664Z,9.63
2022-10-31T12:30:09.413Z,13.77
2022-10-31T12:32:41.324Z,8.93
2022-10-31T12:35:19.159Z,10.23
2022-10-31T12:37:54.660Z,11.03
2022-10-31T12:40:28.266Z,12.33
2022-10-31T12:43:01.494Z,12.60
2022-10-31T12:45:35.512Z,15.70
2022-10-31T12:48:12.316Z,8.47
2022-10-31T12:50:51.808Z,9.27
2022-10-31T12:53:26.096Z,7.73
2022-10-31T12:55:57.879Z,11.80
2022-10-31T12:58:27.827Z,9.93
2022-10-31T13:01:00.426Z,8.37
2022-10-31T13:03:30.226Z,9.40
2022-10-31T13:05:59.680Z,9.13
2022-10-31T13:08:30.300Z,8.93
2022-10-31T13:13:35.752Z,11.07
2022-10-31T13:16:05.409Z,9.93
2022-10-31T13:18:34.574Z,22.77
2022-10-31T13:21:03.764Z,13.43
2022-10-31T13:26:21.899Z,7.77
2022-10-31T13:28:53.292Z,14.67
2022-10-31T13:31:21.782Z,9.70
2022-10-31T13:33:50.767Z,8.33
2022-10-31T13:36:22.930Z,7.87
2022-10-31T13:38:52.791Z,11.60
2022-10-31T13:41:28.474Z,12.67
2022-10-31T13:44:01.449Z,10.17
2022-10-31T13:46:37.943Z,7.87
2022-10-31T13:49:05.460Z,8.40
2022-10-31T13:51:33.393Z,11.63
2022-10-31T13:54:01.417Z,9.53
2022-10-31T13:56:29.431Z,13.47
2022-10-31T13:59:01.651Z,11.40
2022-10-31T14:01:29.262Z,7.80
2022-10-31T14:04:11.002Z,10.03
2022-10-31T14:06:44.125Z,8.00
2022-10-31T14:09:20.334Z,13.70
2022-10-31T14:11:47.972Z,7.50
2022-10-31T14:14:15.540Z,8.00
2022-10-31T14:16:44.082Z,7.47
2022-10-31T14:19:16.093Z,13.93
2022-10-31T14:21:44.044Z,13.93
2022-10-31T14:24:15.416Z,8.30
2022-10-31T14:26:52.466Z,10.87
2022-10-31T14:29:24.642Z,6.63
2022-10-31T14:31:55.680Z,8.30
2022-10-31T14:34:26.292Z,11.63
2022-10-31T14:37:00.581Z,13.63
2022-10-31T14:39:30.888Z,11.03
2022-10-31T14:42:03.461Z,9.10
2022-10-31T14:44:42.891Z,18.33
2022-10-31T14:47:15.596Z,9.43
2022-10-31T14:50:00.778Z,9.80
2022-10-31T14:52:27.960Z,15.73
2022-10-31T14:54:56.419Z,9.67
2022-10-31T14:57:25.219Z,10.00
2022-10-31T14:59:54.225Z,11.93
2022-10-31T15:02:25.993Z,9.10
2022-10-31T15:04:55.992Z,8.03
2022-10-31T15:07:25.046Z,11.13
2022-10-31T15:09:58.642Z,12.00
2022-10-31T15:12:27.299Z,9.00
2022-10-31T15:14:54.723Z,10.23
2022-10-31T15:17:22.278Z,10.00
2022-10-31T15:19:49.400Z,10.50
2022-10-31T15:22:19.233Z,16.00
2022-10-31T15:24:46.689Z,11.60
2022-10-31T15:27:14.323Z,7.33
2022-10-31T15:29:49.409Z,9.40
2022-10-31T15:32:19.489Z,9.37
2022-10-31T15:34:46.557Z,7.43
2022-10-31T15:37:14.157Z,7.50
2022-10-31T15:39:42.685Z,9.07
2022-10-31T15:42:18.261Z,8.63
2022-10-31T15:44:46.174Z,8.63
2022-10-31T15:47:17.321Z,6.90
2022-10-31T15:49:50.546Z,8.23
2022-10-31T15:52:20.042Z,5.90
2022-10-31T15:54:50.311Z,14.93
2022-10-31T15:57:17.845Z,7.30
2022-10-31T15:59:47.308Z,7.10
2022-10-31T16:02:15.453Z,9.50
2022-10-31T16:04:49.756Z,10.80
2022-10-31T16:07:22.681Z,11.13
2022-10-31T16:09:52.759Z,9.10
2022-10-31T16:12:22.599Z,9.17
2022-10-31T16:14:50.387Z,11.80
2022-10-31T16:17:19.096Z,6.80
2022-10-31T16:19:50.275Z,13.60
2022-10-31T16:22:21.709Z,12.63
2022-10-31T16:24:51.035Z,7.00
2022-10-31T16:27:21.552Z,10.23
2022-10-31T16:29:48.918Z,7.70
2022-10-31T16:32:25.971Z,11.53
2022-10-31T16:34:58.675Z,7.70
2022-10-31T16:37:25.727Z,9.30
2022-10-31T16:39:52.810Z,9.43
2022-10-31T16:42:21.295Z,10.73
2022-10-31T16:44:49.121Z,6.03
2022-10-31T16:47:16.949Z,6.70
2022-10-31T16:49:44.390Z,9.37
2022-10-31T16:52:11.461Z,14.07
2022-10-31T16:54:38.700Z,8.50
2022-10-31T16:57:06.802Z,9.10
2022-10-31T16:59:35.804Z,9.03
2022-10-31T17:02:04.765Z,7.67
2022-10-31T17:04:32.052Z,5.97
2022-10-31T17:06:59.177Z,10.33
2022-10-31T17:09:26.305Z,14.87
2022-10-31T17:11:54.457Z,15.97
2022-10-31T17:14:21.656Z,11.97
2022-10-31T17:16:50.097Z,13.40
2022-10-31T17:19:17.187Z,9.00
2022-10-31T17:21:44.337Z,7.77
2022-10-31T17:24:13.405Z,10.30
2022-10-31T17:26:41.002Z,12.20
2022-10-31T17:29:08.108Z,8.27
2022-10-31T17:31:36.226Z,7.97
2022-10-31T17:34:04.700Z,6.70
2022-10-31T17:36:31.909Z,8.93
2022-10-31T17:38:59.086Z,8.83
2022-10-31T17:41:26.181Z,6.90
2022-10-31T17:43:55.409Z,13.43
2022-10-31T17:46:22.511Z,8.30
2022-10-31T17:48:49.624Z,15.33
2022-10-31T17:51:18.311Z,8.70
2022-10-31T17:53:45.411Z,9.90
2022-10-31T17:56:12.526Z,8.20
2022-10-31T17:58:39.610Z,9.63
2022-10-31T18:01:08.549Z,9.13
2022-10-31T18:03:35.711Z,9.90
2022-10-31T18:06:02.823Z,9.90
2022-10-31T18:08:31.845Z,10.37
2022-10-31T18:10:59.348Z,9.77
2022-10-31T18:13:26.575Z,12.60
2022-10-31T18:15:53.647Z,9.50
2022-10-31T18:18:20.734Z,6.60
2022-10-31T18:20:47.835Z,6.43
2022-10-31T18:23:14.921Z,9.40
2022-10-31T18:25:43.390Z,8.83
2022-10-31T18:28:10.598Z,15.10
2022-10-31T18:30:39.468Z,10.90
2022-10-31T18:33:06.563Z,8.33
2022-10-31T18:35:35.741Z,9.23
2022-10-31T18:38:03.397Z,14.97
2022-10-31T18:40:30.701Z,7.30
2022-10-31T18:42:59.231Z,8.00
2022-10-31T18:45:45.973Z,9.80
2022-10-31T18:48:13.945Z,16.00
2022-10-31T18:50:41.033Z,9.17
2022-10-31T18:53:08.140Z,18.10
2022-10-31T18:55:35.445Z,9.70
2022-10-31T18:58:03.867Z,11.37
2022-10-31T19:00:30.980Z,10.63
2022-10-31T19:02:58.217Z,6.63
2022-10-31T19:05:25.417Z,9.97
2022-10-31T19:07:52.506Z,7.30
2022-10-31T19:10:19.603Z,7.90
2022-10-31T19:12:46.699Z,6.57
2022-10-31T19:15:15.214Z,12.93
2022-10-31T19:17:42.320Z,9.93
2022-10-31T19:20:09.978Z,11.50
2022-10-31T19:22:37.050Z,10.10
2022-10-31T19:25:07.735Z,9.70
2022-10-31T19:27:37.459Z,8.47
2022-10-31T19:30:05.085Z,8.40
2022-10-31T19:32:33.530Z,11.73
2022-10-31T19:35:00.649Z,12.17
2022-10-31T19:37:27.738Z,11.83
2022-10-31T19:39:54.905Z,9.90
2022-10-31T19:42:22.005Z,9.00
2022-10-31T19:44:49.361Z,7.60
2022-10-31T19:47:16.415Z,11.10
2022-10-31T19:49:44.840Z,10.87
2022-10-31T19:52:11.932Z,15.80
2022-10-31T19:54:39.038Z,8.90
2022-10-31T19:57:06.111Z,9.40
2022-10-31T19:59:38.992Z,13.27
2022-10-31T20:02:06.547Z,8.07
2022-10-31T20:04:33.682Z,12.17
2022-10-31T20:07:02.094Z,10.10
2022-10-31T20:09:29.143Z,7.40
2022-10-31T20:11:56.228Z,15.10
2022-10-31T20:14:23.310Z,13.10
2022-10-31T20:16:50.395Z,9.20
2022-10-31T20:19:17.500Z,12.93
2022-10-31T20:21:44.783Z,11.03
2022-10-31T20:24:13.188Z,7.53
2022-10-31T20:26:41.031Z,9.10
2022-10-31T20:29:08.500Z,7.63
2022-10-31T20:31:36.836Z,12.73
2022-10-31T20:34:04.269Z,8.83
2022-10-31T20:36:31.395Z,12.53
2022-10-31T20:38:58.540Z,14.30
2022-10-31T20:41:27.219Z,10.47
2022-10-31T20:43:54.313Z,11.63
2022-10-31T20:46:22.175Z,8.53
2022-10-31T20:48:49.445Z,11.40
2022-10-31T20:51:17.735Z,9.63
2022-10-31T20:53:44.910Z,10.77
2022-10-31T20:56:13.323Z,10.87
2022-10-31T20:58:42.459Z,8.30
2022-10-31T21:01:12.127Z,7.97
2022-10-31T21:03:39.326Z,10.10
2022-10-31T21:06:07.165Z,11.93
2022-10-31T21:08:34.597Z,9.30
2022-10-31T21:11:05.303Z,15.53
2022-10-31T21:13:33.293Z,9.50
2022-10-31T21:16:03.569Z,12.10
2022-10-31T21:18:30.686Z,9.30
2022-10-31T21:20:57.954Z,8.90
2022-10-31T21:23:25.066Z,11.00
2022-10-31T21:25:52.209Z,10.67
2022-10-31T21:28:19.310Z,8.70
2022-10-31T21:30:49.760Z,10.20
2022-10-31T21:33:18.455Z,18.50
2022-10-31T21:35:49.226Z,10.70
2022-10-31T21:38:16.302Z,13.37
2022-10-31T21:43:15.428Z,11.63
2022-10-31T21:45:42.561Z,6.47
2022-10-31T21:48:09.655Z,7.83
2022-10-31T21:50:38.106Z,10.00
2022-10-31T21:53:05.256Z,8.83
2022-10-31T21:55:32.356Z,8.47
2022-10-31T21:57:59.659Z,8.13
2022-10-31T22:00:26.923Z,8.70
2022-10-31T22:02:54.006Z,11.00
2022-10-31T22:05:21.080Z,13.77
2022-10-31T22:07:49.495Z,6.27
2022-10-31T22:10:16.697Z,12.47
2022-10-31T22:12:43.777Z,8.60
2022-10-31T22:15:10.988Z,8.80
2022-10-31T22:17:38.067Z,9.80
2022-10-31T22:20:05.594Z,8.13
2022-10-31T22:22:32.738Z,8.03
2022-10-31T22:25:01.179Z,9.13
2022-10-31T22:27:28.271Z,8.97
2022-10-31T22:29:56.634Z,7.73
2022-10-31T22:32:23.985Z,8.23
2022-10-31T22:34:51.119Z,10.20
2022-10-31T22:37:19.846Z,9.30
2022-10-31T22:39:47.093Z,7.00
2022-10-31T22:42:15.541Z,8.83
2022-10-31T22:44:42.649Z,10.43
2022-10-31T22:47:09.731Z,7.10
2022-10-31T22:49:36.787Z,10.13
2022-10-31T22:52:03.951Z,7.37
2022-10-31T22:54:31.019Z,10.33
2022-10-31T22:56:58.071Z,11.90
2022-10-31T22:59:26.518Z,13.00
2022-10-31T23:01:53.710Z,9.40
2022-10-31T23:04:20.973Z,7.40
2022-10-31T23:06:48.171Z,11.30
2022-10-31T23:09:16.356Z,11.23
2022-10-31T23:11:43.688Z,7.63
2022-10-31T23:14:11.618Z,16.30
2022-10-31T23:16:42.531Z,10.57
2022-10-31T23:19:10.113Z,9.97
2022-10-31T23:21:38.083Z,12.60
2022-10-31T23:24:05.410Z,9.03
2022-10-31T23:26:32.498Z,9.80
2022-10-31T23:28:59.546Z,12.97
2022-10-31T23:31:26.627Z,9.23
2022-10-31T23:33:55.045Z,9.10
2022-10-31T23:36:22.300Z,10.80
2022-10-31T23:38:49.391Z,15.67
2022-10-31T23:41:16.496Z,16.10
2022-10-31T23:43:43.581Z,12.40
2022-10-31T23:46:10.651Z,8.80
2022-10-31T23:48:37.727Z,15.03
2022-10-31T23:51:06.379Z,9.57
2022-10-31T23:53:33.554Z,12.10
2022-10-31T23:56:00.643Z,11.70
2022-10-31T23:58:27.744Z,12.27
